Time;durP1;ratioP1;P1;durP2;ratioP2;P2;SDS_P1;SDS_P2;PMS_P1;PMS_P2;Temp;Humidity;BMP_temperature;BMP_pressure;BME280_temperature;BME280_humidity;BME280_pressure;Samples;Min_cycle;Max_cycle;Signal;HPM_P1;HPM_P2
2020/12/15 00:00:43;;;;;;;0.23;0.17;;;;;;;4.71;100.00;99782.25;5035648;28;20526;-50
2020/12/15 00:03:10;;;;;;;0.33;0.33;;;;;;;4.78;100.00;99788.28;5035586;28;20970;-51
2020/12/15 00:05:36;;;;;;;0.30;0.20;;;;;;;4.74;100.00;99782.22;5035976;28;20483;-51
2020/12/15 00:08:02;;;;;;;0.53;0.53;;;;;;;4.68;100.00;99779.66;5030625;28;20944;-50
2020/12/15 00:10:40;;;;;;;3.33;2.20;;;;;;;4.80;100.00;99776.88;5035514;28;20896;-52
2020/12/15 00:13:06;;;;;;;0.30;0.13;;;;;;;5.02;100.00;99773.03;5035736;28;20863;-50
2020/12/15 00:15:32;;;;;;;0.20;0.10;;;;;;;4.94;100.00;99767.03;5035504;28;20518;-50
2020/12/15 00:17:58;;;;;;;0.20;0.20;;;;;;;4.93;100.00;99764.38;5035130;28;20440;-50
2020/12/15 00:20:25;;;;;;;0.20;0.20;;;;;;;4.91;100.00;99772.31;5035626;28;20467;-51
2020/12/15 00:22:52;;;;;;;0.20;0.20;;;;;;;4.93;100.00;99783.69;5035430;28;20455;-50
2020/12/15 00:25:18;;;;;;;0.30;0.20;;;;;;;4.90;100.00;99789.00;5035442;28;20484;-52
2020/12/15 00:27:46;;;;;;;0.20;0.10;;;;;;;4.80;100.00;99794.41;5034793;28;20459;-50
2020/12/15 00:30:13;;;;;;;4.67;3.07;;;;;;;4.79;100.00;99788.25;5035072;28;20881;-50
2020/12/15 00:32:40;;;;;;;0.20;0.10;;;;;;;4.85;100.00;99782.94;5034980;28;20941;-52
2020/12/15 00:35:06;;;;;;;0.30;0.20;;;;;;;5.11;100.00;99779.06;5035358;28;20506;-50
2020/12/15 00:37:34;;;;;;;0.20;0.20;;;;;;;5.13;100.00;99775.50;5031266;28;20449;-51
2020/12/15 00:40:01;;;;;;;0.23;0.20;;;;;;;5.16;100.00;99782.50;5028002;28;20494;-51
2020/12/15 00:42:27;;;;;;;0.20;0.20;;;;;;;5.12;100.00;99779.03;5031351;28;20457;-50
2020/12/15 00:44:54;;;;;;;0.20;0.20;;;;;;;5.09;100.00;99787.00;5028948;28;20493;-51
2020/12/15 00:47:20;;;;;;;0.20;0.20;;;;;;;5.13;100.00;99787.81;5034943;28;21003;-51
2020/12/15 00:49:46;;;;;;;0.30;0.20;;;;;;;4.92;100.00;99784.56;5034648;28;20501;-51
2020/12/15 00:52:12;;;;;;;0.20;0.10;;;;;;;4.98;100.00;99787.16;5034944;28;20459;-50
2020/12/15 00:54:38;;;;;;;0.20;0.10;;;;;;;4.97;100.00;99790.66;5034446;28;20455;-51
2020/12/15 00:57:05;;;;;;;0.20;0.20;;;;;;;5.15;100.00;99799.19;5034996;28;20449;-50
2020/12/15 00:59:31;;;;;;;0.20;0.10;;;;;;;5.11;100.00;99794.88;5034582;28;20498;-51
2020/12/15 01:01:59;;;;;;;0.30;0.20;;;;;;;5.09;100.00;99799.31;5035107;28;20451;-51
2020/12/15 01:04:26;;;;;;;0.40;0.40;;;;;;;5.09;100.00;99797.53;5034707;28;20902;-51
2020/12/15 01:06:55;;;;;;;0.20;0.20;;;;;;;5.14;100.00;99802.72;5034523;28;20542;-51
2020/12/15 01:09:21;;;;;;;0.20;0.20;;;;;;;5.10;100.00;99801.91;5029759;28;20479;-52
2020/12/15 01:11:47;;;;;;;0.20;0.20;;;;;;;5.14;100.00;99814.13;5034716;28;20533;-51
2020/12/15 01:14:13;;;;;;;0.30;0.20;;;;;;;5.21;100.00;99810.53;5034288;28;20480;-52
2020/12/15 01:16:40;;;;;;;0.20;0.20;;;;;;;5.32;100.00;99815.63;5034444;28;20454;-53
2020/12/15 01:19:06;;;;;;;0.20;0.20;;;;;;;5.28;100.00;99812.16;5034209;28;20992;-52
2020/12/15 01:21:33;;;;;;;0.20;0.10;;;;;;;5.20;100.00;99807.88;5034364;28;20452;-52
2020/12/15 01:23:59;;;;;;;0.20;0.13;;;;;;;5.29;100.00;99802.50;5033997;28;20478;-51
2020/12/15 01:26:25;;;;;;;0.30;0.20;;;;;;;5.20;100.00;99799.97;5034365;28;20828;-51
2020/12/15 01:28:51;;;;;;;0.20;0.10;;;;;;;5.06;100.00;99801.06;5034251;28;20502;-51
2020/12/15 01:31:25;;;;;;;0.20;0.20;;;;;;;5.08;100.00;99802.81;5034397;28;20458;-51
2020/12/15 01:33:52;;;;;;;0.20;0.20;;;;;;;5.15;100.00;99800.06;5033980;28;20464;-51
2020/12/15 01:36:32;;;;;;;0.20;0.20;;;;;;;5.22;100.00;99792.97;5034164;28;20448;-51
2020/12/15 01:38:59;;;;;;;0.20;0.13;;;;;;;5.16;100.00;99790.41;5022613;28;20569;-51
2020/12/15 01:41:27;;;;;;;0.20;0.10;;;;;;;5.26;100.00;99799.91;5034211;28;20522;-51
2020/12/15 01:43:56;;;;;;;0.20;0.10;;;;;;;5.28;100.00;99799.00;5023612;28;20830;-51
2020/12/15 01:46:23;;;;;;;0.30;0.17;;;;;;;5.30;100.00;99797.19;5033954;28;20455;-53
2020/12/15 01:48:50;;;;;;;0.30;0.10;;;;;;;5.41;100.00;99802.31;5033807;28;20490;-52
2020/12/15 01:51:16;;;;;;;0.20;0.10;;;;;;;5.37;100.00;99805.03;5033733;28;20505;-50
2020/12/15 01:53:45;;;;;;;0.20;0.10;;;;;;;5.34;100.00;99800.66;5033637;28;20456;-51
2020/12/15 01:56:12;;;;;;;0.20;0.10;;;;;;;5.31;100.00;99790.16;5033521;28;20447;-51
2020/12/15 01:58:40;;;;;;;0.20;0.10;;;;;;;5.42;100.00;99796.16;5033606;28;20452;-51
2020/12/15 02:01:07;;;;;;;0.73;0.73;;;;;;;5.34;100.00;99783.09;5033499;28;20500;-51
2020/12/15 02:03:34;;;;;;;1.27;1.23;;;;;;;5.25;100.00;99777.09;5033512;28;20454;-51
2020/12/15 02:06:01;;;;;;;0.20;0.10;;;;;;;5.28;100.00;99777.03;5033254;28;20495;-51
2020/12/15 02:08:27;;;;;;;0.20;0.20;;;;;;;5.25;100.00;99777.09;5030086;28;20451;-51
2020/12/15 02:10:54;;;;;;;0.20;0.10;;;;;;;5.27;100.00;99772.66;5033269;28;20467;-51
2020/12/15 02:13:22;;;;;;;0.20;0.10;;;;;;;5.24;100.00;99775.34;5033374;28;20448;-51
2020/12/15 02:15:49;;;;;;;0.20;0.20;;;;;;;5.39;100.00;99764.56;5032696;28;20452;-51
2020/12/15 02:18:16;;;;;;;0.20;0.10;;;;;;;5.34;100.00;99763.75;5033291;28;20447;-51
2020/12/15 02:20:42;;;;;;;0.20;0.10;;;;;;;5.31;100.00;99766.44;5032775;28;21000;-51
2020/12/15 02:23:09;;;;;;;0.30;0.20;;;;;;;5.27;100.00;99765.63;5033402;28;20455;-51
2020/12/15 02:25:35;;;;;;;0.20;0.20;;;;;;;5.30;100.00;99764.72;5032901;28;20496;-50
2020/12/15 02:28:02;;;;;;;0.30;0.20;;;;;;;5.27;100.00;99764.75;5033115;28;20458;-51
2020/12/15 02:30:29;;;;;;;0.20;0.10;;;;;;;5.28;100.00;99771.78;5032613;28;20525;-50
2020/12/15 02:32:55;;;;;;;0.20;0.10;;;;;;;5.36;100.00;99767.25;5033109;28;20455;-50
2020/12/15 02:35:21;;;;;;;0.20;0.13;;;;;;;5.33;100.00;99769.94;5032897;28;20448;-51
2020/12/15 02:37:47;;;;;;;1.07;1.03;;;;;;;5.32;100.00;99773.47;5027016;28;20457;-55
2020/12/15 02:40:14;;;;;;;0.20;0.20;;;;;;;5.34;100.00;99774.28;5027546;28;20570;-51
2020/12/15 02:42:40;;;;;;;0.20;0.20;;;;;;;5.31;100.00;99777.00;5027311;28;20464;-52
2020/12/15 02:45:06;;;;;;;0.20;0.10;;;;;;;5.31;100.00;99780.50;5027713;28;20492;-51
2020/12/15 02:47:32;;;;;;;0.30;0.20;;;;;;;5.33;100.00;99777.81;5032445;28;20502;-51
2020/12/15 02:49:58;;;;;;;0.20;0.20;;;;;;;5.29;100.00;99784.06;5032658;28;20494;-52
2020/12/15 02:52:25;;;;;;;0.20;0.20;;;;;;;5.26;100.00;99782.34;5032598;28;20455;-51
2020/12/15 02:54:51;;;;;;;0.20;0.10;;;;;;;5.26;100.00;99782.34;5032667;28;20444;-51
2020/12/15 02:57:17;;;;;;;0.20;0.10;;;;;;;5.39;100.00;99782.16;5032542;28;20982;-51
2020/12/15 02:59:44;;;;;;;0.20;0.20;;;;;;;5.42;100.00;99777.69;5031969;28;20474;-51
2020/12/15 03:02:10;;;;;;;0.20;0.20;;;;;;;5.38;100.00;99776.00;5032615;28;20448;-52
2020/12/15 03:04:38;;;;;;;0.30;0.10;;;;;;;5.38;100.00;99783.06;5032213;28;20910;-51
2020/12/15 03:07:04;;;;;;;0.93;0.93;;;;;;;5.34;100.00;99772.56;5032273;28;20459;-51
2020/12/15 03:09:31;;;;;;;0.20;0.20;;;;;;;5.37;100.00;99765.50;5028355;28;20487;-51
2020/12/15 03:12:02;;;;;;;0.20;0.20;;;;;;;5.48;100.00;99763.53;5032431;28;20948;-51
2020/12/15 03:14:28;;;;;;;0.20;0.20;;;;;;;5.46;100.00;99757.44;5032091;28;20850;-51
2020/12/15 03:16:54;;;;;;;0.30;0.13;;;;;;;5.47;100.00;99765.31;5032573;28;20474;-51
2020/12/15 03:19:21;;;;;;;0.20;0.20;;;;;;;5.56;100.00;99769.56;5032433;28;20813;-51
2020/12/15 03:21:47;;;;;;;0.20;0.20;;;;;;;5.57;100.00;99761.63;5032330;28;20452;-52
2020/12/15 03:24:13;;;;;;;0.20;0.10;;;;;;;5.81;100.00;99759.47;5032051;28;20949;-51
2020/12/15 03:26:39;;;;;;;0.30;0.20;;;;;;;5.85;100.00;99769.06;5032428;28;20554;-50
2020/12/15 03:29:05;;;;;;;0.20;0.20;;;;;;;5.92;100.00;99765.47;5031824;28;20526;-49
2020/12/15 03:31:32;;;;;;;0.30;0.20;;;;;;;5.70;100.00;99769.31;5032587;28;20459;-49
2020/12/15 03:33:58;;;;;;;0.30;0.20;;;;;;;5.67;100.00;99764.13;5032226;28;20813;-49
2020/12/15 03:36:24;;;;;;;0.20;0.20;;;;;;;5.68;100.00;99753.53;5022130;28;20441;-49
2020/12/15 03:38:50;;;;;;;0.30;0.20;;;;;;;5.84;100.00;99762.91;5017761;28;20463;-49
2020/12/15 03:41:17;;;;;;;0.20;0.17;;;;;;;5.88;100.00;99756.69;5031839;28;20444;-49
2020/12/15 03:43:43;;;;;;;0.20;0.20;;;;;;;6.06;100.00;99752.00;5021298;28;20521;-49
2020/12/15 03:46:09;;;;;;;0.30;0.20;;;;;;;6.08;100.00;99753.72;5032140;28;20499;-49
2020/12/15 03:48:35;;;;;;;0.20;0.17;;;;;;;5.93;100.00;99754.88;5032215;28;20873;-49
2020/12/15 03:51:01;;;;;;;0.20;0.20;;;;;;;5.92;100.00;99754.91;5031754;28;20467;-50
2020/12/15 03:53:28;;;;;;;0.30;0.20;;;;;;;6.13;100.00;99748.34;5032219;28;20475;-50
2020/12/15 03:55:54;;;;;;;0.30;0.10;;;;;;;5.91;100.00;99750.53;5032063;28;20521;-51
2020/12/15 03:58:20;;;;;;;0.30;0.20;;;;;;;5.77;100.00;99750.75;5032105;28;20451;-49
2020/12/15 04:00:46;;;;;;;0.30;0.20;;;;;;;5.70;100.00;99756.16;5031946;28;20468;-50
2020/12/15 04:03:13;;;;;;;0.30;0.20;;;;;;;5.67;100.00;99758.84;5031826;28;20501;-50
2020/12/15 04:05:39;;;;;;;0.20;0.20;;;;;;;5.63;100.00;99753.63;5031913;28;20537;-50
2020/12/15 04:08:05;;;;;;;0.20;0.20;;;;;;;5.65;100.00;99757.09;5026411;28;20451;-52
2020/12/15 04:10:31;;;;;;;0.20;0.10;;;;;;;5.64;100.00;99762.41;5031834;28;20472;-51
2020/12/15 04:12:57;;;;;;;0.30;0.20;;;;;;;5.67;100.00;99753.56;5031446;28;20460;-55
2020/12/15 04:15:24;;;;;;;0.20;0.20;;;;;;;5.58;100.00;99766.00;5031982;28;20444;-50
2020/12/15 04:17:50;;;;;;;0.33;0.33;;;;;;;5.55;100.00;99757.28;5031518;28;20455;-50
2020/12/15 04:20:16;;;;;;;0.20;0.10;;;;;;;5.56;100.00;99762.53;5031710;28;20475;-50
2020/12/15 04:22:43;;;;;;;0.23;0.20;;;;;;;5.57;100.00;99758.13;5031604;28;20452;-51
2020/12/15 04:25:09;;;;;;;0.20;0.20;;;;;;;5.56;100.00;99751.97;5031709;28;20491;-50
2020/12/15 04:27:35;;;;;;;0.20;0.20;;;;;;;5.53;100.00;99752.03;5031094;28;21000;-51
2020/12/15 04:30:04;;;;;;;0.30;0.10;;;;;;;5.52;100.00;99745.03;5031753;28;20474;-51
2020/12/15 04:32:30;;;;;;;0.20;0.20;;;;;;;5.54;100.00;99745.88;5031654;28;20771;-50
2020/12/15 04:34:56;;;;;;;0.20;0.10;;;;;;;5.53;100.00;99740.63;5031641;28;20870;-51
2020/12/15 04:37:22;;;;;;;0.20;0.10;;;;;;;5.59;100.00;99748.41;5028780;28;20463;-51
2020/12/15 04:39:49;;;;;;;0.20;0.13;;;;;;;5.53;100.00;99748.53;5025692;28;20829;-51
2020/12/15 04:42:17;;;;;;;0.30;0.20;;;;;;;5.47;100.00;99744.22;5033130;28;20455;-50
2020/12/15 04:44:43;;;;;;;0.20;0.20;;;;;;;5.53;100.00;99751.16;5027399;28;20487;-50
2020/12/15 04:47:26;;;;;;;0.30;0.20;;;;;;;5.58;100.00;99742.28;5034816;28;20530;-51
2020/12/15 04:50:08;;;;;;;0.20;0.10;;;;;;;5.59;100.00;99746.66;5034984;28;20542;-50
2020/12/15 04:52:49;;;;;;;0.20;0.10;;;;;;;5.55;100.00;99742.34;5034719;28;20457;-50
2020/12/15 04:55:16;;;;;;;0.30;0.30;;;;;;;5.62;100.00;99743.13;5034564;28;20991;-50
2020/12/15 04:57:45;;;;;;;0.20;0.10;;;;;;;5.64;100.00;99730.78;5034518;28;20941;-50
2020/12/15 05:00:12;;;;;;;0.20;0.20;;;;;;;5.69;100.00;99731.56;5034546;28;20475;-50
2020/12/15 05:02:40;;;;;;;0.20;0.20;;;;;;;5.62;100.00;99737.84;5034579;28;20889;-51
2020/12/15 05:05:07;;;;;;;0.20;0.10;;;;;;;5.64;100.00;99729.00;5024238;28;20903;-51
2020/12/15 05:07:41;;;;;;;0.20;0.20;;;;;;;5.68;100.00;99736.84;5022955;28;20795;-51
2020/12/15 05:10:09;;;;;;;0.20;0.17;;;;;;;5.72;100.00;99749.06;5034749;28;20467;-51
2020/12/15 05:12:35;;;;;;;0.20;0.20;;;;;;;5.69;100.00;99739.47;5034503;28;20874;-51
2020/12/15 05:15:08;;;;;;;0.73;0.73;;;;;;;5.71;100.00;99747.34;5034926;28;20560;-51
2020/12/15 05:17:35;;;;;;;0.30;0.20;;;;;;;5.69;100.00;99744.72;5034678;28;20443;-50
2020/12/15 05:20:06;;;;;;;0.20;0.20;;;;;;;5.76;100.00;99745.50;5034661;28;20476;-51
2020/12/15 05:22:46;;;;;;;0.30;0.20;;;;;;;5.75;100.00;99741.09;5034369;28;21014;-51
2020/12/15 05:25:22;;;;;;;0.30;0.20;;;;;;;5.74;100.00;99732.31;5034516;28;20514;-51
2020/12/15 05:27:48;;;;;;;0.20;0.10;;;;;;;5.86;100.00;99742.66;5034152;28;20451;-51
2020/12/15 05:30:14;;;;;;;3.13;2.77;;;;;;;5.84;100.00;99743.59;5034416;28;20997;-51
2020/12/15 05:32:55;;;;;;;0.20;0.20;;;;;;;5.87;100.00;99741.75;5034846;28;20558;-55
2020/12/15 05:35:38;;;;;;;0.20;0.20;;;;;;;5.89;100.00;99736.44;5034206;28;20495;-55
2020/12/15 05:38:06;;;;;;;0.20;0.10;;;;;;;6.06;100.00;99738.81;5025648;28;20532;-54
2020/12/15 05:40:38;;;;;;;0.20;0.20;;;;;;;5.98;100.00;99741.59;5031416;28;20533;-55
2020/12/15 05:43:05;;;;;;;0.20;0.20;;;;;;;5.89;100.00;99739.09;5025187;28;20544;-55
2020/12/15 05:45:33;;;;;;;0.20;0.10;;;;;;;6.28;100.00;99740.13;5032541;28;20503;-55
2020/12/15 05:48:03;;;;;;;0.50;0.50;;;;;;;6.03;100.00;99733.59;5034034;28;20451;-55
2020/12/15 05:50:29;;;;;;;0.20;0.10;;;;;;;6.07;100.00;99732.66;5032770;28;20468;-55
2020/12/15 05:53:00;;;;;;;0.20;0.17;;;;;;;5.98;100.00;99736.31;5033805;28;20447;-54
2020/12/15 05:55:28;;;;;;;0.20;0.20;;;;;;;5.97;100.00;99746.91;5034038;28;20447;-55
2020/12/15 05:57:55;;;;;;;0.20;0.20;;;;;;;5.89;100.00;99742.63;5033551;28;20976;-53
2020/12/15 06:00:25;;;;;;;0.23;0.17;;;;;;;5.89;100.00;99737.34;5033621;28;20486;-55
2020/12/15 06:03:00;;;;;;;0.30;0.20;;;;;;;5.97;100.00;99737.22;5033486;28;20889;-54
2020/12/15 06:05:29;;;;;;;0.30;0.20;;;;;;;5.95;100.00;99741.66;5033410;28;20491;-55
2020/12/15 06:07:56;;;;;;;0.20;0.20;;;;;;;6.04;100.00;99748.53;5028698;28;20449;-55
2020/12/15 06:10:24;;;;;;;0.30;0.10;;;;;;;6.03;100.00;99744.13;5033525;28;20471;-55
2020/12/15 06:12:51;;;;;;;0.23;0.13;;;;;;;5.89;100.00;99753.16;5033420;28;20509;-55
2020/12/15 06:15:18;;;;;;;0.20;0.20;;;;;;;5.86;100.00;99747.94;5033269;28;20933;-56
2020/12/15 06:17:48;;;;;;;0.20;0.20;;;;;;;5.83;100.00;99747.13;5033115;28;20452;-55
2020/12/15 06:20:19;;;;;;;0.30;0.20;;;;;;;5.87;100.00;99746.16;5033384;28;20479;-54
2020/12/15 06:22:53;;;;;;;0.30;0.20;;;;;;;6.02;100.00;99759.09;5033194;28;20961;-54
2020/12/15 06:25:28;;;;;;;0.20;0.10;;;;;;;6.01;100.00;99738.88;5033355;28;20559;-55
2020/12/15 06:28:02;;;;;;;0.20;0.20;;;;;;;5.93;100.00;99746.97;5033558;28;20451;-55
2020/12/15 06:30:33;;;;;;;0.30;0.30;;;;;;;6.04;100.00;99738.84;5032927;28;20475;-55
2020/12/15 06:33:07;;;;;;;0.20;0.10;;;;;;;5.92;100.00;99737.31;5019943;28;20458;-55
2020/12/15 06:35:34;;;;;;;0.20;0.10;;;;;;;5.99;100.00;99727.50;5017318;28;20442;-54
2020/12/15 06:38:06;;;;;;;0.20;0.10;;;;;;;5.99;100.00;99727.50;5025109;28;20521;-55
2020/12/15 06:40:43;;;;;;;0.20;0.20;;;;;;;6.10;100.00;99740.50;5030398;28;20491;-55
2020/12/15 06:43:10;;;;;;;0.20;0.20;;;;;;;6.12;100.00;99736.06;5023545;28;20457;-55
2020/12/15 06:45:36;;;;;;;0.20;0.10;;;;;;;6.22;100.00;99741.13;5032215;28;20492;-55
2020/12/15 06:48:05;;;;;;;0.20;0.20;;;;;;;6.14;100.00;99728.97;5032920;28;20994;-55
2020/12/15 06:50:42;;;;;;;4.00;3.20;;;;;;;6.18;100.00;99728.03;5032588;28;20468;-55
2020/12/15 06:53:17;;;;;;;0.20;0.20;;;;;;;6.12;100.00;99728.13;5032498;28;20500;-55
2020/12/15 06:55:44;;;;;;;0.20;0.20;;;;;;;6.20;100.00;99718.31;5032861;28;20443;-55
2020/12/15 06:58:21;;;;;;;0.30;0.20;;;;;;;6.14;100.00;99724.56;5032556;28;20455;-55
2020/12/15 07:00:47;;;;;;;0.30;0.30;;;;;;;6.06;100.00;99726.50;5032532;28;20472;-54
2020/12/15 07:03:16;;;;;;;0.30;0.20;;;;;;;6.12;100.00;99725.50;5032337;28;20455;-55
2020/12/15 07:05:42;;;;;;;0.20;0.20;;;;;;;6.19;100.00;99730.63;5032140;28;20491;-55
2020/12/15 07:08:11;;;;;;;0.20;0.13;;;;;;;6.28;100.00;99724.28;5027300;28;20511;-54
2020/12/15 07:10:43;;;;;;;0.30;0.20;;;;;;;6.32;100.00;99723.34;5032536;28;20471;-55
2020/12/15 07:13:13;;;;;;;0.20;0.20;;;;;;;6.38;100.00;99730.25;5032363;28;20455;-55
2020/12/15 07:15:39;;;;;;;0.20;0.10;;;;;;;6.43;100.00;99723.09;5032188;28;20452;-55
2020/12/15 07:18:06;;;;;;;0.20;0.10;;;;;;;6.47;100.00;99724.78;5031761;28;20827;-54
2020/12/15 07:20:33;;;;;;;0.20;0.13;;;;;;;6.49;100.00;99725.63;5032126;28;20843;-55
2020/12/15 07:23:00;;;;;;;0.20;0.17;;;;;;;6.46;100.00;99737.13;5032190;28;20988;-55
2020/12/15 07:25:26;;;;;;;0.30;0.20;;;;;;;6.47;100.00;99743.28;5032251;28;20510;-55
2020/12/15 07:27:53;;;;;;;0.20;0.20;;;;;;;6.54;100.00;99743.09;5032494;28;20903;-55
2020/12/15 07:30:21;;;;;;;0.30;0.20;;;;;;;6.47;100.00;99745.91;5032479;28;20468;-54
2020/12/15 07:32:49;;;;;;;0.20;0.20;;;;;;;6.51;100.00;99750.22;5032107;28;20448;-53
2020/12/15 07:35:22;;;;;;;0.30;0.20;;;;;;;6.47;100.00;99745.91;5032167;28;20529;-55
2020/12/15 07:37:50;;;;;;;0.30;0.20;;;;;;;6.55;100.00;99754.53;5026187;28;20471;-54
2020/12/15 07:40:18;;;;;;;0.30;0.20;;;;;;;6.50;100.00;99765.19;5027499;28;20479;-56
2020/12/15 07:42:55;;;;;;;0.30;0.20;;;;;;;6.46;100.00;99760.03;5026030;28;20460;-55
2020/12/15 07:45:23;;;;;;;0.30;0.20;;;;;;;6.41;100.00;99759.22;5028851;28;20499;-56
2020/12/15 07:47:50;;;;;;;0.20;0.10;;;;;;;6.47;100.00;99761.75;5032338;28;20455;-55
2020/12/15 07:50:21;;;;;;;0.20;0.20;;;;;;;6.58;100.00;99757.13;5031945;28;20499;-56
2020/12/15 07:52:48;;;;;;;0.20;0.10;;;;;;;6.46;100.00;99755.59;5032464;28;20452;-54
2020/12/15 07:55:15;;;;;;;0.30;0.20;;;;;;;6.53;100.00;99757.19;5032028;28;20443;-55
2020/12/15 07:57:48;;;;;;;0.30;0.20;;;;;;;6.45;100.00;99759.16;5031939;28;20999;-56
2020/12/15 08:00:16;;;;;;;0.20;0.20;;;;;;;6.51;100.00;99758.13;5031831;28;20474;-55
2020/12/15 08:02:44;;;;;;;0.30;0.20;;;;;;;6.56;100.00;99764.19;5032039;28;20452;-55
2020/12/15 08:05:27;;;;;;;0.30;0.20;;;;;;;6.57;100.00;99765.91;5031806;28;20494;-55
2020/12/15 08:07:56;;;;;;;0.30;0.20;;;;;;;6.58;100.00;99767.69;5027421;28;20444;-55
2020/12/15 08:10:27;;;;;;;0.30;0.20;;;;;;;6.61;100.00;99764.97;5031838;28;20482;-55
2020/12/15 08:12:59;;;;;;;0.20;0.20;;;;;;;6.69;100.00;99765.66;5032169;28;20506;-56
2020/12/15 08:15:29;;;;;;;0.40;0.40;;;;;;;6.69;100.00;99757.75;5035599;28;20443;-55
2020/12/15 08:17:58;;;;;;;0.30;0.20;;;;;;;6.69;100.00;99765.66;5035530;28;20455;-55
2020/12/15 08:20:29;;;;;;;0.30;0.30;;;;;;;6.68;100.00;99763.94;5035505;28;20467;-54
2020/12/15 08:23:08;;;;;;;0.30;0.20;;;;;;;6.69;100.00;99763.03;5035494;28;20474;-55
2020/12/15 08:25:43;;;;;;;0.30;0.20;;;;;;;6.70;100.00;99767.41;5035434;28;20552;-55
2020/12/15 08:28:21;;;;;;;0.30;0.20;;;;;;;6.75;100.00;99767.31;5035554;28;20454;-56
2020/12/15 08:30:48;;;;;;;0.30;0.20;;;;;;;6.78;100.00;99777.81;5035238;28;20499;-55
2020/12/15 08:33:25;;;;;;;0.30;0.20;;;;;;;6.81;100.00;99775.09;5035252;28;20535;-55
2020/12/15 08:35:53;;;;;;;0.30;0.20;;;;;;;6.79;100.00;99780.41;5035091;28;20439;-55
2020/12/15 08:38:20;;;;;;;0.30;0.30;;;;;;;6.80;100.00;99771.59;5024756;28;20491;-54
2020/12/15 08:41:00;;;;;;;0.30;0.20;;;;;;;6.77;100.00;99773.44;5034387;28;21057;-55
2020/12/15 08:43:27;;;;;;;0.30;0.20;;;;;;;6.72;100.00;99772.69;5024329;28;20451;-55
2020/12/15 08:45:54;;;;;;;0.30;0.20;;;;;;;6.70;100.00;99788.53;5034980;28;20513;-55
2020/12/15 08:48:22;;;;;;;0.53;0.53;;;;;;;6.70;100.00;99788.53;5035051;28;20497;-55
2020/12/15 08:50:50;;;;;;;0.30;0.20;;;;;;;6.73;100.00;99791.13;5034900;28;20471;-55
2020/12/15 08:53:18;;;;;;;0.30;0.20;;;;;;;6.69;100.00;99799.13;5034868;28;20467;-55
2020/12/15 08:55:48;;;;;;;0.30;0.10;;;;;;;6.70;100.00;99795.59;5034931;28;20455;-55
2020/12/15 08:58:15;;;;;;;0.30;0.10;;;;;;;6.79;100.00;99796.28;5034668;28;20464;-56
2020/12/15 09:00:53;;;;;;;0.30;0.20;;;;;;;6.97;100.00;99795.00;5034687;28;20487;-55
2020/12/15 09:03:19;;;;;;;0.30;0.20;;;;;;;6.97;100.00;99795.00;5034799;28;20451;-55
2020/12/15 09:05:52;;;;;;;0.30;0.20;;;;;;;7.04;100.00;99788.69;5034753;28;20870;-56
2020/12/15 09:08:20;;;;;;;0.30;0.20;;;;;;;7.06;100.00;99799.22;5029942;28;20854;-55
2020/12/15 09:10:48;;;;;;;0.30;0.20;;;;;;;7.08;100.00;99803.56;5034509;28;20542;-55
2020/12/15 09:13:15;;;;;;;0.30;0.20;;;;;;;7.29;100.00;99804.00;5034635;28;20452;-55
2020/12/15 09:15:49;;;;;;;0.30;0.20;;;;;;;7.39;100.00;99801.06;5034740;28;20440;-55
2020/12/15 09:18:16;;;;;;;0.40;0.40;;;;;;;7.59;100.00;99797.97;5034690;28;20482;-56
2020/12/15 09:20:43;;;;;;;0.30;0.20;;;;;;;7.34;100.00;99804.75;5034303;28;20468;-55
2020/12/15 09:23:10;;;;;;;0.73;0.73;;;;;;;7.43;100.00;99800.13;5034269;28;20447;-56
2020/12/15 09:25:37;;;;;;;0.30;0.20;;;;;;;7.37;100.00;99812.59;5034105;28;20499;-55
2020/12/15 09:28:03;;;;;;;0.30;0.20;;;;;;;7.24;100.00;99821.72;5034316;28;20553;-55
2020/12/15 09:30:29;;;;;;;0.30;0.20;;;;;;;7.27;100.00;99825.19;5034067;28;20471;-55
2020/12/15 09:32:56;;;;;;;0.30;0.20;;;;;;;7.27;100.00;99819.03;5034304;28;20447;-55
2020/12/15 09:35:22;;;;;;;0.30;0.20;;;;;;;7.31;100.00;99820.69;5034114;28;20443;-55
2020/12/15 09:37:48;;;;;;;0.50;0.50;;;;;;;7.26;100.00;99815.47;5027878;28;20452;-55
2020/12/15 09:40:14;;;;;;;0.30;0.20;;;;;;;7.37;100.00;99821.41;5028930;28;20487;-55
2020/12/15 09:42:44;;;;;;;0.30;0.20;;;;;;;7.47;100.00;99814.13;5028632;28;20464;-55
2020/12/15 09:45:11;;;;;;;0.30;0.20;;;;;;;7.38;100.00;99817.84;5029634;28;20487;-54
2020/12/15 09:47:41;;;;;;;0.30;0.20;;;;;;;7.42;100.00;99814.25;5033949;28;20447;-54
2020/12/15 09:50:09;;;;;;;0.30;0.20;;;;;;;7.43;100.00;99821.28;5033528;28;20476;-54
2020/12/15 09:52:36;;;;;;;0.30;0.20;;;;;;;7.45;100.00;99823.88;5033722;28;20805;-55
2020/12/15 09:55:06;;;;;;;0.30;0.20;;;;;;;7.45;100.00;99815.06;5033848;28;20468;-56
2020/12/15 09:57:36;;;;;;;0.30;0.20;;;;;;;7.45;100.00;99817.72;5033584;28;20955;-55
2020/12/15 10:00:03;;;;;;;0.30;0.20;;;;;;;7.50;100.00;99821.97;5033530;28;20479;-55
2020/12/15 10:02:30;;;;;;;1.43;1.33;;;;;;;7.54;100.00;99814.84;5033801;28;21059;-55
2020/12/15 10:04:56;;;;;;;0.30;0.20;;;;;;;7.47;100.00;99816.78;5033444;28;20547;-55
2020/12/15 10:07:22;;;;;;;0.30;0.20;;;;;;;7.52;100.00;99822.81;5031229;28;20460;-55
2020/12/15 10:09:49;;;;;;;0.30;0.20;;;;;;;7.66;100.00;99811.91;5032259;28;20479;-55
2020/12/15 10:12:15;;;;;;;0.30;0.20;;;;;;;7.63;100.00;99811.97;5033501;28;20459;-55
2020/12/15 10:14:41;;;;;;;0.30;0.20;;;;;;;7.88;100.00;99807.81;5033496;28;20458;-55
2020/12/15 10:17:07;;;;;;;0.30;0.20;;;;;;;7.81;100.00;99808.91;5033452;28;20448;-54
2020/12/15 10:19:34;;;;;;;0.30;0.20;;;;;;;7.71;100.00;99812.69;5033224;28;20475;-56
2020/12/15 10:22:00;;;;;;;0.30;0.30;;;;;;;7.66;100.00;99803.97;5033635;28;20475;-55
2020/12/15 10:24:26;;;;;;;0.30;0.20;;;;;;;7.80;100.00;99804.50;5033368;28;20448;-55
2020/12/15 10:26:53;;;;;;;0.30;0.20;;;;;;;7.63;100.00;99812.84;5033428;28;20495;-55
2020/12/15 10:29:19;;;;;;;0.30;0.20;;;;;;;7.68;100.00;99810.13;5033540;28;20475;-56
2020/12/15 10:31:47;;;;;;;0.30;0.20;;;;;;;7.80;100.00;99808.91;5033079;28;20964;-55
2020/12/15 10:34:14;;;;;;;0.30;0.20;;;;;;;7.81;100.00;99819.50;5033300;28;20456;-55
2020/12/15 10:36:40;;;;;;;0.30;0.20;;;;;;;7.70;100.00;99826.81;5032602;28;20942;-56
2020/12/15 10:39:06;;;;;;;0.30;0.20;;;;;;;7.70;100.00;99826.81;5021846;28;20491;-55
2020/12/15 10:41:36;;;;;;;0.30;0.20;;;;;;;7.70;100.00;99842.69;5033118;28;20933;-56
2020/12/15 10:44:03;;;;;;;0.30;0.20;;;;;;;7.83;100.00;99827.38;5023299;28;20502;-55
2020/12/15 10:46:29;;;;;;;0.30;0.20;;;;;;;7.83;100.00;99828.25;5032765;28;20498;-55
2020/12/15 10:48:55;;;;;;;0.30;0.20;;;;;;;7.81;100.00;99824.78;5033038;28;20535;-54
2020/12/15 10:51:22;;;;;;;0.30;0.20;;;;;;;7.86;100.00;99824.66;5032651;28;20868;-55
2020/12/15 10:53:48;;;;;;;0.30;0.20;;;;;;;7.81;100.00;99823.88;5032835;28;20455;-55
2020/12/15 10:56:18;;;;;;;0.30;0.20;;;;;;;7.82;100.00;99821.22;5032943;28;20479;-56
2020/12/15 10:58:44;;;;;;;0.30;0.20;;;;;;;7.79;100.00;99818.63;5032834;28;20451;-54
2020/12/15 11:01:11;;;;;;;0.30;0.20;;;;;;;7.72;100.00;99820.56;5032594;28;20936;-55
2020/12/15 11:03:37;;;;;;;0.30;0.20;;;;;;;7.82;100.00;99826.50;5032596;28;20506;-55
2020/12/15 11:06:04;;;;;;;0.30;0.20;;;;;;;7.81;100.00;99823.88;5032343;28;20491;-56
2020/12/15 11:08:30;;;;;;;0.30;0.20;;;;;;;7.78;100.00;99829.25;5027879;28;20452;-56
2020/12/15 11:10:57;;;;;;;0.30;0.20;;;;;;;7.78;100.00;99829.25;5032439;28;20468;-55
2020/12/15 11:13:23;;;;;;;0.33;0.30;;;;;;;7.78;100.00;99827.47;5032565;28;20455;-55
2020/12/15 11:15:49;;;;;;;0.30;0.20;;;;;;;7.77;100.00;99823.09;5032110;28;20458;-56
2020/12/15 11:18:16;;;;;;;0.30;0.20;;;;;;;7.80;100.00;99819.50;5032583;28;20452;-55
2020/12/15 11:20:42;;;;;;;0.30;0.20;;;;;;;7.76;100.00;99817.84;5032355;28;20533;-55
2020/12/15 11:23:08;;;;;;;0.30;0.20;;;;;;;7.95;100.00;99809.41;5024828;28;20449;-55
2020/12/15 11:25:34;;;;;;;0.30;0.20;;;;;;;7.97;100.00;99812.03;5026683;28;20514;-54
2020/12/15 11:28:01;;;;;;;0.30;0.20;;;;;;;7.95;100.00;99808.56;5032370;28;20451;-55
2020/12/15 11:30:27;;;;;;;0.30;0.20;;;;;;;7.97;100.00;99809.38;5032023;28;20467;-56
2020/12/15 11:32:53;;;;;;;0.30;0.20;;;;;;;7.88;100.00;99809.59;5032721;28;20953;-56
2020/12/15 11:35:19;;;;;;;0.30;0.20;;;;;;;7.94;100.00;99806.78;5032136;28;20975;-56
2020/12/15 11:37:46;;;;;;;0.30;0.20;;;;;;;8.01;100.00;99808.38;5026458;28;20452;-56